createdAt,value
2023-01-29T00:00:10.388Z,101252.55
2023-01-29T00:03:00.910Z,101244.83
2023-01-29T00:05:28.834Z,101246.27
2023-01-29T00:07:57.279Z,101249.77
2023-01-29T00:10:26.569Z,101250.40
2023-01-29T00:12:55.160Z,101245.68
2023-01-29T00:15:23.633Z,101235.21
2023-01-29T00:17:51.789Z,101232.15
2023-01-29T00:20:20.097Z,101234.05
2023-01-29T00:22:47.983Z,101233.10
2023-01-29T00:25:16.966Z,101228.04
2023-01-29T00:27:45.140Z,101221.84
2023-01-29T00:30:13.813Z,101217.46
2023-01-29T00:32:42.184Z,101218.84
2023-01-29T00:35:10.507Z,101218.73
2023-01-29T00:37:38.614Z,101214.34
2023-01-29T00:40:07.029Z,101210.79
2023-01-29T00:43:10.022Z,101209.86
2023-01-29T00:45:39.695Z,101207.73
2023-01-29T00:48:07.579Z,101205.95
2023-01-29T00:50:35.381Z,101205.44
2023-01-29T00:53:03.298Z,101205.22
2023-01-29T00:55:31.355Z,101199.61
2023-01-29T00:57:59.175Z,101197.11
2023-01-29T01:00:27.400Z,101197.61
2023-01-29T01:03:07.784Z,101193.68
2023-01-29T01:05:37.193Z,101186.55
2023-01-29T01:08:25.691Z,101185.29
2023-01-29T01:11:03.833Z,101186.64
2023-01-29T01:13:33.847Z,101175.73
2023-01-29T01:16:01.777Z,101167.05
2023-01-29T01:18:30.479Z,101156.98
2023-01-29T01:20:59.569Z,101154.96
2023-01-29T01:23:27.899Z,101149.79
2023-01-29T01:25:55.817Z,101145.09
2023-01-29T01:28:23.774Z,101141.45
2023-01-29T01:30:51.752Z,101142.03
2023-01-29T01:33:20.272Z,101144.02
2023-01-29T01:35:48.152Z,101148.89
2023-01-29T01:38:16.001Z,101148.92
2023-01-29T01:40:46.138Z,101147.55
2023-01-29T01:43:14.057Z,101152.56
2023-01-29T01:45:44.041Z,101148.39
2023-01-29T01:48:17.218Z,101155.41
2023-01-29T01:50:57.070Z,101149.29
2023-01-29T01:53:34.518Z,101140.86
2023-01-29T01:56:06.889Z,101147.10
2023-01-29T01:59:02.132Z,101155.91
2023-01-29T02:01:30.109Z,101155.23
2023-01-29T02:04:22.380Z,101155.73
2023-01-29T02:07:10.970Z,101148.16
2023-01-29T02:09:49.206Z,101150.48
2023-01-29T02:12:17.359Z,101153.64
2023-01-29T02:14:46.005Z,101153.23
2023-01-29T02:17:19.519Z,101151.17
2023-01-29T02:19:59.671Z,101151.59
2023-01-29T02:22:39.591Z,101151.17
2023-01-29T02:25:27.595Z,101155.40
2023-01-29T02:28:17.432Z,101152.68
2023-01-29T02:30:50.195Z,101148.71
2023-01-29T02:37:09.601Z,101135.90
2023-01-29T02:40:01.688Z,101136.40
2023-01-29T02:42:38.834Z,101138.02
2023-01-29T02:45:19.320Z,101134.33
2023-01-29T02:47:51.769Z,101127.41
2023-01-29T02:50:34.078Z,101122.98
2023-01-29T02:53:14.041Z,101124.05
2023-01-29T02:55:48.721Z,101120.11
2023-01-29T02:58:39.073Z,101114.16
2023-01-29T03:01:13.063Z,101117.21
2023-01-29T03:03:45.722Z,101123.82
2023-01-29T03:06:46.010Z,101122.13
2023-01-29T03:09:38.655Z,101119.90
2023-01-29T03:12:28.985Z,101115.21
2023-01-29T03:15:11.678Z,101107.30
2023-01-29T03:18:11.920Z,101102.59
2023-01-29T03:20:48.196Z,101096.46
2023-01-29T03:23:38.006Z,101097.77
2023-01-29T03:26:30.191Z,101102.33
2023-01-29T03:29:19.811Z,101094.29
2023-01-29T03:32:08.852Z,101095.14
2023-01-29T03:34:43.966Z,101095.36
2023-01-29T03:37:24.126Z,101093.69
2023-01-29T03:39:52.607Z,101096.63
2023-01-29T03:42:32.148Z,101096.48
2023-01-29T03:45:11.852Z,101092.27
2023-01-29T03:48:12.266Z,101090.12
2023-01-29T03:51:18.136Z,101095.70
2023-01-29T03:53:51.435Z,101101.06
2023-01-29T03:56:25.606Z,101099.84
2023-01-29T03:59:27.342Z,101096.66
2023-01-29T04:03:07.610Z,101093.14
2023-01-29T04:06:09.856Z,101093.45
2023-01-29T04:08:51.497Z,101090.74
2023-01-29T04:11:22.318Z,101087.61
2023-01-29T04:13:52.231Z,101087.95
2023-01-29T04:16:35.778Z,101084.29
2023-01-29T04:19:24.280Z,101080.96
2023-01-29T04:22:02.079Z,101079.17
2023-01-29T04:24:31.571Z,101076.76
2023-01-29T04:27:43.253Z,101074.73
2023-01-29T04:34:57.419Z,101057.58
2023-01-29T04:37:31.942Z,101059.09
2023-01-29T04:40:23.694Z,101057.22
2023-01-29T04:43:08.881Z,101060.08
2023-01-29T04:45:49.070Z,101060.55
2023-01-29T04:48:49.315Z,101062.00
2023-01-29T04:51:20.516Z,101065.45
2023-01-29T04:53:52.674Z,101066.17
2023-01-29T04:56:23.519Z,101067.91
2023-01-29T04:59:09.879Z,101067.44
2023-01-29T05:01:39.164Z,101063.17
2023-01-29T05:04:11.661Z,101054.46
2023-01-29T05:06:41.652Z,101042.45
2023-01-29T05:09:09.884Z,101040.38
2023-01-29T05:11:37.880Z,101035.97
2023-01-29T05:14:10.072Z,101040.98
2023-01-29T05:16:46.183Z,101047.67
2023-01-29T05:19:16.901Z,101047.68
2023-01-29T05:21:48.138Z,101051.34
2023-01-29T05:24:21.691Z,101050.27
2023-01-29T05:27:10.560Z,101047.91
2023-01-29T05:29:41.731Z,101044.48
2023-01-29T05:32:09.553Z,101045.36
2023-01-29T05:34:37.797Z,101039.52
2023-01-29T05:37:05.644Z,101034.91
2023-01-29T05:39:33.478Z,101029.15
2023-01-29T05:42:02.082Z,101028.07
2023-01-29T05:44:30.030Z,101024.48
2023-01-29T05:46:57.845Z,101018.02
2023-01-29T05:49:26.019Z,101017.27
2023-01-29T05:51:53.970Z,101016.08
2023-01-29T05:54:21.908Z,101015.46
2023-01-29T05:56:55.574Z,101020.39
2023-01-29T05:59:32.417Z,101024.79
2023-01-29T06:02:00.385Z,101023.46
2023-01-29T06:04:28.459Z,101023.13
2023-01-29T06:06:56.318Z,101020.81
2023-01-29T06:09:24.451Z,101011.25
2023-01-29T06:11:52.310Z,101014.80
2023-01-29T06:14:20.262Z,101021.61
2023-01-29T06:16:48.067Z,101022.93
2023-01-29T06:19:15.964Z,101035.45
2023-01-29T06:21:43.982Z,101037.52
2023-01-29T06:24:11.959Z,101034.80
2023-01-29T06:26:39.882Z,101038.32
2023-01-29T06:29:07.703Z,101034.23
2023-01-29T06:31:39.676Z,101038.23
2023-01-29T06:34:08.397Z,101036.95
2023-01-29T06:36:36.310Z,101035.45
2023-01-29T06:39:04.800Z,101034.83
2023-01-29T06:41:32.875Z,101036.50
2023-01-29T06:44:00.819Z,101036.18
2023-01-29T06:46:28.788Z,101029.98
2023-01-29T06:49:00.074Z,101029.18
2023-01-29T06:51:28.045Z,101030.02
2023-01-29T06:53:56.461Z,101038.05
2023-01-29T06:56:27.685Z,101042.88
2023-01-29T06:58:55.532Z,101038.58
2023-01-29T07:01:35.589Z,101034.06
2023-01-29T07:04:04.258Z,101032.60
2023-01-29T07:06:32.825Z,101033.20
2023-01-29T07:09:01.025Z,101032.08
2023-01-29T07:11:28.969Z,101032.52
2023-01-29T07:13:56.966Z,101024.61
2023-01-29T07:16:26.310Z,101012.63
2023-01-29T07:18:54.634Z,101000.48
2023-01-29T07:21:22.582Z,100992.18
2023-01-29T07:23:50.804Z,100996.07
2023-01-29T07:26:18.808Z,101002.15
2023-01-29T07:28:46.636Z,101008.51
2023-01-29T07:31:15.419Z,101008.36
2023-01-29T07:33:44.685Z,101007.56
2023-01-29T07:36:15.890Z,101012.48
2023-01-29T07:38:43.787Z,101014.17
2023-01-29T07:41:11.834Z,101021.71
2023-01-29T07:43:39.955Z,101024.23
2023-01-29T07:46:08.396Z,101019.15
2023-01-29T07:48:36.612Z,101019.28
2023-01-29T07:51:05.596Z,101026.47
2023-01-29T07:53:33.487Z,101026.08
2023-01-29T07:56:01.339Z,101024.27
2023-01-29T07:58:29.154Z,101027.28
2023-01-29T08:00:56.990Z,101024.78
2023-01-29T08:03:25.189Z,101015.23
2023-01-29T08:05:53.122Z,101011.27
2023-01-29T08:08:21.088Z,101004.42
2023-01-29T08:10:48.897Z,101007.58
2023-01-29T08:13:16.898Z,101009.80
2023-01-29T08:15:45.697Z,101010.93
2023-01-29T08:18:14.913Z,101012.14
2023-01-29T08:20:42.841Z,101005.35
2023-01-29T08:23:16.558Z,101002.47
2023-01-29T08:25:44.863Z,100992.16
2023-01-29T08:28:12.971Z,100990.39
2023-01-29T08:30:41.220Z,100994.35
2023-01-29T08:33:09.116Z,100989.41
2023-01-29T08:35:37.554Z,100987.65
2023-01-29T08:38:05.738Z,100985.92
2023-01-29T08:40:35.192Z,100984.23
2023-01-29T08:43:09.374Z,100983.85
2023-01-29T08:45:41.179Z,100980.70
2023-01-29T08:48:10.297Z,100988.86
2023-01-29T08:50:38.517Z,100990.42
2023-01-29T08:53:08.968Z,100993.52
2023-01-29T08:55:38.617Z,100992.94
2023-01-29T08:58:08.382Z,100990.73
2023-01-29T09:00:36.456Z,100983.18
2023-01-29T09:03:05.265Z,100980.71
2023-01-29T09:05:34.994Z,100976.34
2023-01-29T09:08:03.227Z,100975.05
2023-01-29T09:10:31.420Z,100966.10
2023-01-29T09:12:59.355Z,100958.70
2023-01-29T09:15:27.745Z,100951.52
2023-01-29T09:17:55.830Z,100946.95
2023-01-29T09:20:23.957Z,100937.77
2023-01-29T09:22:53.908Z,100926.34
2023-01-29T09:25:21.849Z,100918.62
2023-01-29T09:27:49.704Z,100920.32
2023-01-29T09:30:18.358Z,100927.57
2023-01-29T09:32:54.589Z,100929.48
2023-01-29T09:35:23.813Z,100930.23
2023-01-29T09:37:52.981Z,100926.73
2023-01-29T09:40:26.765Z,100925.39
2023-01-29T09:43:01.976Z,100926.75
2023-01-29T09:45:30.623Z,100922.13
2023-01-29T09:48:02.318Z,100918.07
2023-01-29T09:50:40.151Z,100918.37
2023-01-29T09:53:29.617Z,100915.73
2023-01-29T09:56:14.512Z,100909.42
2023-01-29T09:58:43.875Z,100900.46
2023-01-29T10:01:23.841Z,100896.94
2023-01-29T10:04:13.685Z,100896.39
2023-01-29T10:06:44.635Z,100896.30
2023-01-29T10:09:44.450Z,100899.02
2023-01-29T10:12:18.094Z,100895.23
2023-01-29T10:14:58.274Z,100901.14
2023-01-29T10:17:51.103Z,100896.02
2023-01-29T10:20:44.020Z,100886.48
2023-01-29T10:23:31.489Z,100885.32
2023-01-29T10:26:01.047Z,100879.90
2023-01-29T10:28:37.282Z,100876.06
2023-01-29T10:31:12.587Z,100875.55
2023-01-29T10:33:49.211Z,100883.97
2023-01-29T10:36:34.457Z,100881.54
2023-01-29T10:39:02.311Z,100873.84
2023-01-29T10:41:53.969Z,100875.40
2023-01-29T10:44:38.021Z,100872.14
2023-01-29T10:47:33.190Z,100873.30
2023-01-29T10:50:13.143Z,100870.89
2023-01-29T10:52:59.560Z,100870.16
2023-01-29T10:55:36.685Z,100861.95
2023-01-29T10:58:16.861Z,100865.23
2023-01-29T11:04:35.420Z,100866.45
2023-01-29T11:07:03.259Z,100860.45
2023-01-29T11:09:46.392Z,100852.73
2023-01-29T11:12:22.796Z,100850.15
2023-01-29T11:15:07.167Z,100844.42
2023-01-29T11:17:35.029Z,100841.30
2023-01-29T11:20:06.113Z,100839.67
2023-01-29T11:22:34.336Z,100836.64
2023-01-29T11:25:21.679Z,100828.65
2023-01-29T11:27:52.923Z,100821.06
2023-01-29T11:30:25.784Z,100823.01
2023-01-29T11:33:17.991Z,100821.20
2023-01-29T11:35:46.592Z,100812.15
2023-01-29T11:38:18.662Z,100807.69
2023-01-29T11:40:46.840Z,100805.00
2023-01-29T11:43:27.823Z,100798.96
2023-01-29T11:46:12.144Z,100790.64
2023-01-29T11:48:51.759Z,100790.75
2023-01-29T11:51:29.855Z,100786.15
2023-01-29T11:54:01.165Z,100775.37
2023-01-29T11:56:39.982Z,100773.23
2023-01-29T11:59:35.304Z,100772.55
2023-01-29T12:02:18.278Z,100778.60
2023-01-29T12:04:47.888Z,100773.91
2023-01-29T12:07:18.323Z,100767.80
2023-01-29T12:09:56.059Z,100761.70
2023-01-29T12:12:35.541Z,100757.90
2023-01-29T12:15:26.464Z,100759.32
2023-01-29T12:18:30.318Z,100748.85
2023-01-29T12:21:04.803Z,100744.81
2023-01-29T12:23:48.168Z,100740.84
2023-01-29T12:26:21.717Z,100732.70
2023-01-29T12:29:15.002Z,100727.88
2023-01-29T12:32:19.334Z,100731.80
2023-01-29T12:35:00.900Z,100731.84
2023-01-29T12:38:07.742Z,100730.11
2023-01-29T12:40:47.732Z,100728.30
2023-01-29T12:43:18.531Z,100732.77
2023-01-29T12:45:52.920Z,100725.40
2023-01-29T12:48:29.640Z,100716.91
2023-01-29T12:51:06.733Z,100710.20
2023-01-29T12:53:47.515Z,100704.14
2023-01-29T12:56:39.624Z,100699.92
2023-01-29T12:59:34.353Z,100692.78
2023-01-29T13:02:38.685Z,100696.09
2023-01-29T13:05:43.640Z,100687.58
2023-01-29T13:08:30.849Z,100689.09
2023-01-29T13:11:02.310Z,100695.42
2023-01-29T13:13:41.031Z,100697.85
2023-01-29T13:16:12.628Z,100703.17
2023-01-29T13:18:47.838Z,100706.65
2023-01-29T13:21:22.267Z,100708.57
2023-01-29T13:23:53.474Z,100705.37
2023-01-29T13:26:23.223Z,100708.48
2023-01-29T13:28:52.426Z,100716.26
2023-01-29T13:31:37.884Z,100721.74
2023-01-29T13:34:17.810Z,100716.84
2023-01-29T13:36:52.937Z,100712.42
2023-01-29T13:39:27.345Z,100715.73
2023-01-29T13:41:57.116Z,100715.58
2023-01-29T13:44:37.103Z,100706.11
2023-01-29T13:47:08.919Z,100694.80
2023-01-29T13:49:40.668Z,100685.05
2023-01-29T13:52:26.842Z,100680.66
2023-01-29T13:55:15.367Z,100674.96
2023-01-29T13:57:49.039Z,100676.98
2023-01-29T14:00:25.028Z,100676.77
2023-01-29T14:02:55.861Z,100676.23
2023-01-29T14:05:32.672Z,100674.84
2023-01-29T14:08:27.114Z,100673.23
2023-01-29T14:11:22.048Z,100667.27
2023-01-29T14:13:50.147Z,100675.02
2023-01-29T14:16:18.022Z,100684.23
2023-01-29T14:19:18.103Z,100693.02
2023-01-29T14:21:50.489Z,100699.83
2023-01-29T14:24:22.183Z,100696.66
2023-01-29T14:26:55.358Z,100701.85
2023-01-29T14:29:34.215Z,100708.37
2023-01-29T14:32:05.963Z,100708.56
2023-01-29T14:35:01.112Z,100699.79
2023-01-29T14:37:36.702Z,100684.64
2023-01-29T14:40:23.987Z,100684.25
2023-01-29T14:43:08.076Z,100684.14
2023-01-29T14:45:44.564Z,100677.40
2023-01-29T14:48:12.401Z,100672.20
2023-01-29T14:50:43.841Z,100661.65
2023-01-29T14:53:18.478Z,100655.78
2023-01-29T14:56:01.667Z,100655.41
2023-01-29T14:58:49.197Z,100662.77
2023-01-29T15:01:27.031Z,100668.23
2023-01-29T15:04:07.650Z,100672.69
2023-01-29T15:06:44.800Z,100684.75
2023-01-29T15:09:36.876Z,100687.08
2023-01-29T15:12:26.533Z,100688.50
2023-01-29T15:15:36.692Z,100685.31
2023-01-29T15:18:08.109Z,100683.91
2023-01-29T15:20:39.097Z,100680.67
2023-01-29T15:23:44.185Z,100674.85
2023-01-29T15:26:17.897Z,100672.63
2023-01-29T15:29:02.114Z,100667.90
2023-01-29T15:31:32.226Z,100665.48
2023-01-29T15:34:06.218Z,100658.90
2023-01-29T15:36:36.667Z,100648.51
2023-01-29T15:39:22.930Z,100646.10
2023-01-29T15:42:04.382Z,100644.23
2023-01-29T15:44:34.905Z,100642.52
2023-01-29T15:47:03.026Z,100642.82
2023-01-29T15:49:34.233Z,100643.19
2023-01-29T15:52:15.988Z,100640.48
2023-01-29T15:54:44.541Z,100641.14
2023-01-29T15:57:23.100Z,100630.50
2023-01-29T16:02:46.294Z,100627.48
2023-01-29T16:05:23.158Z,100625.80
2023-01-29T16:07:52.536Z,100622.74
2023-01-29T16:10:23.022Z,100622.84
2023-01-29T16:12:52.245Z,100628.08
2023-01-29T16:15:54.013Z,100628.55
2023-01-29T16:18:28.389Z,100619.59
2023-01-29T16:20:58.657Z,100619.11
2023-01-29T16:23:29.702Z,100625.70
2023-01-29T16:26:05.169Z,100632.14
2023-01-29T16:28:34.394Z,100635.49
2023-01-29T16:31:04.310Z,100634.98
2023-01-29T16:33:38.412Z,100639.13
2023-01-29T16:36:22.542Z,100636.11
2023-01-29T16:38:54.943Z,100636.81
2023-01-29T16:41:23.972Z,100638.34
2023-01-29T16:44:04.519Z,100636.60
2023-01-29T16:46:34.532Z,100633.52
2023-01-29T16:49:23.743Z,100633.83
2023-01-29T16:51:52.524Z,100632.30
2023-01-29T16:54:33.783Z,100634.71
2023-01-29T16:57:02.149Z,100637.77
2023-01-29T16:59:35.007Z,100633.63
2023-01-29T17:02:04.608Z,100628.56
2023-01-29T17:04:33.257Z,100629.42
2023-01-29T17:07:02.611Z,100624.81
2023-01-29T17:09:34.087Z,100627.12
2023-01-29T17:12:05.414Z,100621.84
2023-01-29T17:14:34.466Z,100617.54
2023-01-29T17:17:05.179Z,100615.36
2023-01-29T17:19:33.316Z,100618.08
2023-01-29T17:22:04.730Z,100611.55
2023-01-29T17:24:32.502Z,100602.30
2023-01-29T17:27:02.233Z,100601.38
2023-01-29T17:29:31.737Z,100600.11
2023-01-29T17:32:00.313Z,100598.14
2023-01-29T17:34:28.462Z,100597.77
2023-01-29T17:36:57.526Z,100593.46
2023-01-29T17:39:25.771Z,100588.63
2023-01-29T17:41:55.792Z,100584.22
2023-01-29T17:44:28.101Z,100573.41
2023-01-29T17:46:56.132Z,100566.25
2023-01-29T17:49:25.266Z,100567.63
2023-01-29T17:51:55.125Z,100561.95
2023-01-29T17:54:23.921Z,100548.39
2023-01-29T17:56:53.137Z,100542.85
2023-01-29T17:59:27.759Z,100533.85
2023-01-29T18:01:55.828Z,100526.05
2023-01-29T18:04:23.883Z,100523.23
2023-01-29T18:06:53.238Z,100519.84
2023-01-29T18:09:21.859Z,100518.80
2023-01-29T18:11:51.122Z,100518.19
2023-01-29T18:14:19.199Z,100508.55
2023-01-29T18:16:47.161Z,100506.17
2023-01-29T18:19:31.220Z,100498.73
2023-01-29T18:21:59.466Z,100496.66
2023-01-29T18:24:31.068Z,100493.76
2023-01-29T18:26:58.820Z,100494.36
2023-01-29T18:29:30.130Z,100491.98
2023-01-29T18:31:58.449Z,100482.29
2023-01-29T18:34:26.380Z,100483.84
2023-01-29T18:36:54.160Z,100484.61
2023-01-29T18:39:22.127Z,100489.12
2023-01-29T18:41:49.895Z,100493.48
2023-01-29T18:44:17.818Z,100488.95
2023-01-29T18:46:45.740Z,100486.30
2023-01-29T18:49:13.589Z,100480.17
2023-01-29T18:51:41.434Z,100476.48
2023-01-29T18:54:13.105Z,100475.98
2023-01-29T18:57:13.064Z,100469.30
2023-01-29T18:59:28.923Z,100467.38
2023-01-29T19:04:35.345Z,100466.71
2023-01-29T19:07:04.841Z,100468.70
2023-01-29T19:09:32.874Z,100465.95
2023-01-29T19:12:00.816Z,100467.48
2023-01-29T19:14:28.734Z,100467.69
2023-01-29T19:16:57.101Z,100465.15
2023-01-29T19:19:25.621Z,100461.55
2023-01-29T19:21:54.328Z,100456.98
2023-01-29T19:24:22.953Z,100463.12
2023-01-29T19:26:51.322Z,100460.48
2023-01-29T19:29:20.288Z,100464.23
2023-01-29T19:31:48.471Z,100462.38
2023-01-29T19:34:16.406Z,100460.61
2023-01-29T19:36:44.471Z,100461.16
2023-01-29T19:39:12.849Z,100455.62
2023-01-29T19:41:41.964Z,100454.85
2023-01-29T19:44:11.568Z,100445.73
2023-01-29T19:46:39.474Z,100445.25
2023-01-29T19:49:07.409Z,100443.10
2023-01-29T19:51:35.439Z,100443.41
2023-01-29T19:54:04.131Z,100437.92
2023-01-29T19:56:34.594Z,100431.40
2023-01-29T19:59:02.736Z,100431.02
2023-01-29T20:01:31.081Z,100427.08
2023-01-29T20:03:58.955Z,100421.77
2023-01-29T20:06:30.958Z,100421.17
2023-01-29T20:09:26.529Z,100423.73
2023-01-29T20:11:54.411Z,100417.86
2023-01-29T20:14:22.426Z,100405.87
2023-01-29T20:16:50.329Z,100399.92
2023-01-29T20:19:20.099Z,100398.79
2023-01-29T20:21:49.022Z,100394.24
2023-01-29T20:24:17.744Z,100387.89
2023-01-29T20:26:45.699Z,100387.25
2023-01-29T20:29:13.676Z,100385.02
2023-01-29T20:31:41.774Z,100381.48
2023-01-29T20:34:09.983Z,100378.63
2023-01-29T20:36:38.030Z,100376.02
2023-01-29T20:39:05.968Z,100364.77
2023-01-29T20:41:34.274Z,100359.91
2023-01-29T20:44:02.334Z,100351.58
2023-01-29T20:46:30.526Z,100340.11
2023-01-29T20:48:58.710Z,100336.66
2023-01-29T20:51:26.676Z,100333.80
2023-01-29T20:53:55.606Z,100325.43
2023-01-29T20:56:35.951Z,100323.52
2023-01-29T20:59:09.642Z,100317.77
2023-01-29T21:01:37.570Z,100319.90
2023-01-29T21:04:05.472Z,100317.30
2023-01-29T21:06:33.740Z,100310.83
2023-01-29T21:09:01.711Z,100314.96
2023-01-29T21:11:30.007Z,100309.64
2023-01-29T21:13:59.175Z,100309.19
2023-01-29T21:16:27.517Z,100306.54
2023-01-29T21:18:59.683Z,100306.36
2023-01-29T21:21:28.034Z,100307.23
2023-01-29T21:23:56.231Z,100305.40
2023-01-29T21:26:24.544Z,100306.48
2023-01-29T21:28:52.581Z,100303.50
2023-01-29T21:31:20.793Z,100306.19
2023-01-29T21:33:48.726Z,100301.29
2023-01-29T21:36:17.502Z,100301.55
2023-01-29T21:38:45.532Z,100305.22
2023-01-29T21:41:13.560Z,100303.56
2023-01-29T21:43:41.480Z,100301.68
2023-01-29T21:46:12.026Z,100301.84
2023-01-29T21:48:41.229Z,100297.61
2023-01-29T21:51:09.265Z,100292.13
2023-01-29T21:53:37.358Z,100287.55
2023-01-29T21:56:06.125Z,100285.83
2023-01-29T21:58:34.023Z,100280.39
2023-01-29T22:01:35.187Z,100275.31
2023-01-29T22:03:49.796Z,100272.61
2023-01-29T22:06:18.256Z,100265.38
2023-01-29T22:08:49.055Z,100261.71
2023-01-29T22:11:17.047Z,100261.02
2023-01-29T22:13:45.259Z,100258.83
2023-01-29T22:16:13.148Z,100256.48
2023-01-29T22:18:40.995Z,100247.42
2023-01-29T22:21:09.078Z,100242.27
2023-01-29T22:23:38.023Z,100239.05
2023-01-29T22:26:07.209Z,100227.45
2023-01-29T22:28:35.364Z,100221.96
2023-01-29T22:31:05.383Z,100216.30
2023-01-29T22:33:33.607Z,100211.27
2023-01-29T22:36:01.846Z,100207.45
2023-01-29T22:38:30.248Z,100199.88
2023-01-29T22:41:00.441Z,100196.56
2023-01-29T22:43:29.408Z,100193.36
2023-01-29T22:45:57.487Z,100181.02
2023-01-29T22:48:25.599Z,100170.21
2023-01-29T22:51:09.672Z,100163.98
2023-01-29T22:53:38.602Z,100156.13
2023-01-29T22:56:07.365Z,100148.76
2023-01-29T22:58:35.373Z,100150.09
2023-01-29T23:01:04.047Z,100145.36
2023-01-29T23:03:32.104Z,100138.98
2023-01-29T23:06:00.075Z,100135.30
2023-01-29T23:08:28.506Z,100125.11
2023-01-29T23:11:13.915Z,100114.50
2023-01-29T23:13:53.578Z,100104.41
2023-01-29T23:16:26.266Z,100102.10
2023-01-29T23:18:56.572Z,100101.73
2023-01-29T23:21:25.360Z,100102.90
2023-01-29T23:23:55.411Z,100097.55
2023-01-29T23:26:42.055Z,100093.13
2023-01-29T23:29:10.604Z,100089.85
2023-01-29T23:31:38.941Z,100085.02
2023-01-29T23:34:07.219Z,100085.57
2023-01-29T23:36:35.163Z,100079.78
2023-01-29T23:39:03.097Z,100074.65
2023-01-29T23:41:30.926Z,100073.98
2023-01-29T23:43:58.931Z,100064.30
2023-01-29T23:46:27.211Z,100062.11
2023-01-29T23:48:55.107Z,100056.23
2023-01-29T23:51:24.238Z,100054.55
2023-01-29T23:53:52.905Z,100054.64
2023-01-29T23:56:20.898Z,100046.97
2023-01-29T23:58:53.506Z,100049.89
